Time;durP1;ratioP1;P1;durP2;ratioP2;P2;SDS_P1;SDS_P2;PMS_P1;PMS_P2;Temp;Humidity;BMP_temperature;BMP_pressure;BME280_temperature;BME280_humidity;BME280_pressure;Samples;Min_cycle;Max_cycle;Signal;HPM_P1;HPM_P2
2024/01/29 00:01:14;;;;;;;;;;;11.10;99.90;;;;;;5078050;28;20403;-77
2024/01/29 00:03:40;;;;;;;;;;;11.10;99.90;;;;;;5078171;28;19932;-76
2024/01/29 00:06:05;;;;;;;;;;;11.10;99.90;;;;;;5076350;28;19912;-76
2024/01/29 00:08:31;;;;;;;;;;;11.10;99.90;;;;;;5077475;28;20430;-76
2024/01/29 00:10:57;;;;;;;;;;;11.10;99.90;;;;;;5078079;28;20395;-77
2024/01/29 00:13:22;;;;;;;;;;;11.00;99.90;;;;;;5077746;28;19908;-76
2024/01/29 00:15:48;;;;;;;;;;;11.00;99.90;;;;;;5077835;28;20324;-76
2024/01/29 00:18:13;;;;;;;;;;;11.00;99.90;;;;;;5077646;28;20003;-76
2024/01/29 00:20:39;;;;;;;;;;;11.00;99.90;;;;;;5077297;28;20010;-76
2024/01/29 00:23:04;;;;;;;;;;;11.00;99.90;;;;;;5077758;28;19958;-76
2024/01/29 00:25:30;;;;;;;;;;;11.00;99.90;;;;;;5077610;28;19916;-77
2024/01/29 00:27:55;;;;;;;;;;;11.10;99.90;;;;;;5077575;28;19947;-75
2024/01/29 00:30:21;;;;;;;;;;;11.00;99.90;;;;;;5077331;28;19920;-75
2024/01/29 00:32:46;;;;;;;;;;;11.00;99.90;;;;;;5077570;28;19913;-76
2024/01/29 00:35:12;;;;;;;;;;;11.00;99.90;;;;;;5077229;28;19908;-75
2024/01/29 00:37:38;;;;;;;;;;;11.00;99.90;;;;;;5077226;28;19909;-74
2024/01/29 00:40:04;;;;;;;;;;;10.90;99.90;;;;;;5109650;28;19916;-78
2024/01/29 00:42:30;;;;;;;;;;;11.00;99.90;;;;;;5075970;28;19916;-75
2024/01/29 00:44:56;;;;;;;;;;;11.00;99.90;;;;;;5077030;28;19935;-75
2024/01/29 00:47:22;;;;;;;;;;;11.00;99.90;;;;;;5075787;28;19920;-76
2024/01/29 00:49:48;;;;;;;;;;;11.00;99.90;;;;;;5075701;28;19991;-76
2024/01/29 00:52:13;;;;;;;;;;;11.00;99.90;;;;;;5076928;28;19944;-75
2024/01/29 00:54:40;;;;;;;;;;;11.00;99.90;;;;;;5076958;28;20027;-75
2024/01/29 00:57:05;;;;;;;;;;;11.00;99.90;;;;;;5075421;28;20262;-75
2024/01/29 00:59:31;;;;;;;;;;;11.00;99.90;;;;;;5076482;28;19919;-77
2024/01/29 01:01:56;;;;;;;;;;;11.00;99.90;;;;;;5075465;28;20249;-77
2024/01/29 01:04:22;;;;;;;;;;;10.90;99.90;;;;;;5076804;28;19912;-78
2024/01/29 01:06:47;;;;;;;;;;;10.80;99.90;;;;;;5077657;28;20331;-77
2024/01/29 01:09:14;;;;;;;;;;;10.80;99.90;;;;;;5077012;28;20438;-76
2024/01/29 01:11:41;;;;;;;;;;;10.80;99.90;;;;;;5077018;28;19948;-78
2024/01/29 01:14:06;;;;;;;;;;;10.70;99.90;;;;;;5076602;28;19915;-77
2024/01/29 01:16:32;;;;;;;;;;;10.90;99.90;;;;;;5076607;28;19909;-78
2024/01/29 01:18:57;;;;;;;;;;;10.90;99.90;;;;;;5074981;28;19924;-77
2024/01/29 01:21:23;;;;;;;;;;;11.00;99.90;;;;;;5075577;28;19919;-76
2024/01/29 01:23:48;;;;;;;;;;;10.90;99.90;;;;;;5075052;28;19913;-75
2024/01/29 01:26:14;;;;;;;;;;;10.90;99.90;;;;;;5076373;28;19954;-77
2024/01/29 01:28:39;;;;;;;;;;;11.00;99.90;;;;;;5076499;28;19908;-76
2024/01/29 01:31:05;;;;;;;;;;;10.90;99.90;;;;;;5108833;28;19912;-77
2024/01/29 01:33:30;;;;;;;;;;;10.90;99.90;;;;;;5076575;28;19962;-76
2024/01/29 01:35:56;;;;;;;;;;;10.90;99.90;;;;;;5075946;28;19991;-77
2024/01/29 01:38:22;;;;;;;;;;;10.90;99.90;;;;;;5076103;28;19951;-78
2024/01/29 01:40:47;;;;;;;;;;;11.00;99.90;;;;;;5076165;28;19912;-77
2024/01/29 01:43:16;;;;;;;;;;;11.00;99.90;;;;;;5076102;28;19917;-77
2024/01/29 01:45:42;;;;;;;;;;;11.00;99.90;;;;;;5074564;28;20299;-78
2024/01/29 01:48:07;;;;;;;;;;;10.90;99.90;;;;;;5070445;28;19909;-78
2024/01/29 01:50:33;;;;;;;;;;;10.90;99.90;;;;;;5076043;28;19912;-78
2024/01/29 01:52:59;;;;;;;;;;;11.00;99.90;;;;;;5074639;28;19999;-76
2024/01/29 01:55:24;;;;;;;;;;;11.10;99.90;;;;;;5074632;28;19909;-76
2024/01/29 01:57:50;;;;;;;;;;;11.10;99.90;;;;;;5075929;28;19968;-79
2024/01/29 02:00:16;;;;;;;;;;;11.20;99.90;;;;;;5075868;28;19946;-79
2024/01/29 02:02:42;;;;;;;;;;;11.20;99.90;;;;;;5074305;28;20436;-77
2024/01/29 02:05:07;;;;;;;;;;;11.20;99.90;;;;;;5075797;28;19909;-77
2024/01/29 02:07:33;;;;;;;;;;;11.20;99.90;;;;;;5074327;28;19914;-81
2024/01/29 02:09:59;;;;;;;;;;;11.20;99.90;;;;;;5075844;28;19923;-79
2024/01/29 02:12:25;;;;;;;;;;;11.20;99.90;;;;;;5075898;28;20429;-79
2024/01/29 02:14:51;;;;;;;;;;;11.20;99.90;;;;;;5075866;28;20389;-80
2024/01/29 02:17:16;;;;;;;;;;;11.20;99.90;;;;;;5074672;28;19963;-77
2024/01/29 02:19:42;;;;;;;;;;;11.20;99.90;;;;;;5075647;28;19918;-82
2024/01/29 02:22:07;;;;;;;;;;;11.20;99.90;;;;;;5075852;28;19915;-77
2024/01/29 02:24:33;;;;;;;;;;;11.10;99.90;;;;;;5076056;28;19958;-82
2024/01/29 02:26:58;;;;;;;;;;;11.10;99.90;;;;;;5075853;28;20350;-75
2024/01/29 02:29:24;;;;;;;;;;;11.10;99.90;;;;;;5074623;28;19951;-77
2024/01/29 02:31:49;;;;;;;;;;;11.20;99.90;;;;;;5077259;28;19983;-80
2024/01/29 02:34:15;;;;;;;;;;;11.10;99.90;;;;;;5072322;28;19947;-79
2024/01/29 02:36:40;;;;;;;;;;;11.10;99.90;;;;;;5079489;28;19919;-78
2024/01/29 02:39:08;;;;;;;;;;;11.10;99.90;;;;;;5078814;28;20357;-79
2024/01/29 02:41:33;;;;;;;;;;;11.00;99.90;;;;;;5080236;28;20015;-78
2024/01/29 02:43:59;;;;;;;;;;;11.00;99.90;;;;;;5079856;28;19940;-79
2024/01/29 02:46:24;;;;;;;;;;;11.00;99.90;;;;;;5079829;28;19916;-77
2024/01/29 02:48:50;;;;;;;;;;;11.00;99.90;;;;;;5079339;28;19913;-78
2024/01/29 02:51:15;;;;;;;;;;;11.00;99.90;;;;;;5079126;28;19913;-77
2024/01/29 02:53:41;;;;;;;;;;;11.00;99.90;;;;;;5077726;28;19912;-77
2024/01/29 02:56:06;;;;;;;;;;;11.10;99.90;;;;;;5079353;28;19916;-78
2024/01/29 02:58:32;;;;;;;;;;;11.00;99.90;;;;;;5078985;28;19929;-80
2024/01/29 03:00:57;;;;;;;;;;;11.00;99.90;;;;;;5077911;28;19955;-77
2024/01/29 03:03:23;;;;;;;;;;;10.90;99.90;;;;;;5079114;28;19924;-77
2024/01/29 03:05:48;;;;;;;;;;;11.00;99.90;;;;;;5077529;28;20312;-77
2024/01/29 03:08:14;;;;;;;;;;;10.90;99.90;;;;;;5077527;28;19915;-80
2024/01/29 03:10:39;;;;;;;;;;;10.90;99.90;;;;;;5077438;28;19966;-81
2024/01/29 03:13:05;;;;;;;;;;;10.90;99.90;;;;;;5077539;28;19917;-76
2024/01/29 03:15:31;;;;;;;;;;;10.90;99.90;;;;;;5077771;28;19919;-76
2024/01/29 03:17:56;;;;;;;;;;;10.80;99.90;;;;;;5111641;28;19909;-77
2024/01/29 03:20:22;;;;;;;;;;;10.90;99.90;;;;;;5077206;28;19912;-76
2024/01/29 03:22:48;;;;;;;;;;;10.80;99.90;;;;;;5078795;28;19908;-76
2024/01/29 03:25:13;;;;;;;;;;;10.80;99.90;;;;;;5078748;28;19927;-76
2024/01/29 03:27:39;;;;;;;;;;;10.80;99.90;;;;;;5077441;28;19923;-76
2024/01/29 03:30:05;;;;;;;;;;;10.90;99.90;;;;;;5078653;28;19912;-74
2024/01/29 03:32:31;;;;;;;;;;;10.80;99.90;;;;;;5078521;28;20273;-77
2024/01/29 03:34:56;;;;;;;;;;;10.80;99.90;;;;;;5078664;28;19935;-77
2024/01/29 03:37:22;;;;;;;;;;;10.80;99.90;;;;;;5077042;28;19912;-76
2024/01/29 03:39:47;;;;;;;;;;;10.80;99.90;;;;;;5078536;28;20430;-77
2024/01/29 03:42:13;;;;;;;;;;;10.80;99.90;;;;;;5077106;28;20406;-77
2024/01/29 03:44:38;;;;;;;;;;;10.70;99.90;;;;;;5077607;28;20361;-76
2024/01/29 03:47:04;;;;;;;;;;;10.70;99.90;;;;;;5078409;28;19981;-79
2024/01/29 03:49:29;;;;;;;;;;;10.70;99.90;;;;;;5076738;28;19908;-78
2024/01/29 03:51:55;;;;;;;;;;;10.80;99.90;;;;;;5076819;28;20515;-77
2024/01/29 03:54:21;;;;;;;;;;;10.80;99.90;;;;;;5078334;28;20389;-77
2024/01/29 03:56:46;;;;;;;;;;;10.90;99.90;;;;;;5076765;28;19909;-77
2024/01/29 03:59:12;;;;;;;;;;;10.90;99.90;;;;;;5077809;28;19925;-78
2024/01/29 04:01:38;;;;;;;;;;;11.00;99.90;;;;;;5110573;28;19970;-76
2024/01/29 04:04:04;;;;;;;;;;;11.10;99.90;;;;;;5078820;28;19915;-78
2024/01/29 04:06:30;;;;;;;;;;;11.10;99.90;;;;;;5079117;28;19984;-76
2024/01/29 04:08:55;;;;;;;;;;;11.20;99.90;;;;;;5078742;28;19908;-77
2024/01/29 04:11:21;;;;;;;;;;;11.30;99.90;;;;;;5078320;28;19951;-77
2024/01/29 04:13:46;;;;;;;;;;;11.30;99.90;;;;;;5078254;28;19943;-77
2024/01/29 04:16:12;;;;;;;;;;;11.40;99.90;;;;;;5078376;28;20015;-81
2024/01/29 04:18:38;;;;;;;;;;;11.30;99.90;;;;;;5078061;28;20000;-77
2024/01/29 04:21:05;;;;;;;;;;;11.40;99.90;;;;;;5076711;28;19909;-76
2024/01/29 04:23:30;;;;;;;;;;;11.40;99.90;;;;;;5077553;28;20342;-76
2024/01/29 04:25:56;;;;;;;;;;;11.40;99.90;;;;;;5077745;28;19909;-76
2024/01/29 04:28:21;;;;;;;;;;;11.50;99.90;;;;;;5077425;28;19915;-76
2024/01/29 04:30:47;;;;;;;;;;;11.50;99.90;;;;;;5076267;28;19916;-78
2024/01/29 04:33:12;;;;;;;;;;;11.50;99.90;;;;;;5075962;28;19915;-76
2024/01/29 04:35:38;;;;;;;;;;;11.50;99.90;;;;;;5076074;28;19919;-76
2024/01/29 04:38:03;;;;;;;;;;;11.60;99.90;;;;;;5077259;28;20368;-76
2024/01/29 04:40:29;;;;;;;;;;;11.60;99.90;;;;;;5077346;28;20388;-78
2024/01/29 04:42:55;;;;;;;;;;;11.50;99.90;;;;;;5077460;28;19915;-77
2024/01/29 04:45:21;;;;;;;;;;;11.50;99.90;;;;;;5077065;28;20304;-80
2024/01/29 04:47:46;;;;;;;;;;;11.50;99.90;;;;;;5077175;28;19915;-76
2024/01/29 04:50:12;;;;;;;;;;;11.50;99.90;;;;;;5076954;28;19909;-80
2024/01/29 04:52:37;;;;;;;;;;;11.60;99.90;;;;;;5075507;28;19909;-77
2024/01/29 04:55:03;;;;;;;;;;;11.60;99.90;;;;;;5077019;28;19944;-77
2024/01/29 04:57:28;;;;;;;;;;;11.60;99.90;;;;;;5077125;28;20007;-77
2024/01/29 04:59:55;;;;;;;;;;;11.60;99.90;;;;;;5075471;28;19980;-76
2024/01/29 05:02:21;;;;;;;;;;;11.60;99.90;;;;;;5076890;28;20003;-76
2024/01/29 05:04:46;;;;;;;;;;;11.60;99.90;;;;;;5076596;28;19954;-75
2024/01/29 05:07:12;;;;;;;;;;;11.60;99.90;;;;;;5076801;28;19915;-78
2024/01/29 05:09:37;;;;;;;;;;;11.50;99.90;;;;;;5076964;28;19908;-76
2024/01/29 05:12:05;;;;;;;;;;;11.50;99.90;;;;;;5076804;28;19916;-79
2024/01/29 05:14:30;;;;;;;;;;;11.40;99.90;;;;;;5075380;28;19958;-79
2024/01/29 05:16:56;;;;;;;;;;;11.40;99.90;;;;;;5075296;28;19913;-78
2024/01/29 05:19:21;;;;;;;;;;;11.30;99.90;;;;;;5108860;28;19966;-79
2024/01/29 05:21:47;;;;;;;;;;;11.30;99.90;;;;;;5076336;28;20446;-78
2024/01/29 05:24:13;;;;;;;;;;;11.30;99.90;;;;;;5076251;28;19935;-77
2024/01/29 05:26:39;;;;;;;;;;;11.30;99.90;;;;;;5075099;28;19955;-79
2024/01/29 05:29:04;;;;;;;;;;;11.30;99.90;;;;;;5075047;28;20007;-76
2024/01/29 05:31:30;;;;;;;;;;;11.30;99.90;;;;;;5076021;28;19974;-79
2024/01/29 05:33:55;;;;;;;;;;;11.30;99.90;;;;;;5075245;28;19916;-77
2024/01/29 05:36:21;;;;;;;;;;;11.30;99.90;;;;;;5074716;28;19936;-77
2024/01/29 05:38:47;;;;;;;;;;;11.30;99.90;;;;;;5075960;28;19954;-76
2024/01/29 05:41:12;;;;;;;;;;;11.30;99.90;;;;;;5074890;28;19920;-79
2024/01/29 05:43:38;;;;;;;;;;;11.30;99.90;;;;;;5074939;28;19909;-75
2024/01/29 05:46:03;;;;;;;;;;;11.30;99.90;;;;;;5076077;28;19908;-76
2024/01/29 05:48:29;;;;;;;;;;;11.30;99.90;;;;;;5076051;28;19920;-76
2024/01/29 05:50:55;;;;;;;;;;;11.30;99.90;;;;;;5075861;28;19974;-77
2024/01/29 05:53:20;;;;;;;;;;;11.30;99.90;;;;;;5074698;28;19912;-75
2024/01/29 05:55:46;;;;;;;;;;;11.40;99.90;;;;;;5076281;28;19917;-79
2024/01/29 05:58:12;;;;;;;;;;;11.30;99.90;;;;;;5075917;28;19928;-81
2024/01/29 06:00:37;;;;;;;;;;;11.30;99.90;;;;;;5075652;28;20755;-78
2024/01/29 06:03:03;;;;;;;;;;;11.30;99.90;;;;;;5076197;28;19958;-77
2024/01/29 06:05:28;;;;;;;;;;;11.30;99.90;;;;;;5074152;28;19917;-77
2024/01/29 06:07:55;;;;;;;;;;;11.40;99.90;;;;;;5108028;28;20300;-77
2024/01/29 06:10:21;;;;;;;;;;;11.40;99.90;;;;;;5076052;28;19931;-82
2024/01/29 06:12:47;;;;;;;;;;;11.50;99.90;;;;;;5074812;28;19912;-78
2024/01/29 06:15:12;;;;;;;;;;;11.50;99.90;;;;;;5075854;28;20000;-77
2024/01/29 06:17:39;;;;;;;;;;;11.50;99.90;;;;;;5075800;28;19955;-77
2024/01/29 06:20:05;;;;;;;;;;;11.50;99.90;;;;;;5075501;28;19952;-77
2024/01/29 06:22:30;;;;;;;;;;;11.50;99.90;;;;;;5075638;28;19908;-77
2024/01/29 06:24:56;;;;;;;;;;;11.60;99.90;;;;;;5074408;28;19908;-78
2024/01/29 06:27:21;;;;;;;;;;;11.60;99.90;;;;;;5066265;28;19924;-80
2024/01/29 06:29:47;;;;;;;;;;;11.60;99.90;;;;;;5073933;28;19977;-78
2024/01/29 06:32:12;;;;;;;;;;;11.60;99.90;;;;;;5075012;28;19915;-79
2024/01/29 06:34:38;;;;;;;;;;;11.60;99.90;;;;;;5073487;28;19919;-76
2024/01/29 06:37:03;;;;;;;;;;;11.60;99.90;;;;;;5074730;28;19912;-79
2024/01/29 06:39:29;;;;;;;;;;;11.60;99.90;;;;;;5075009;28;19920;-79
2024/01/29 06:41:54;;;;;;;;;;;11.60;99.90;;;;;;5075840;28;19931;-75
2024/01/29 06:44:20;;;;;;;;;;;11.60;99.90;;;;;;5075695;28;19951;-78
2024/01/29 06:46:45;;;;;;;;;;;11.60;99.90;;;;;;5075481;28;19947;-78
2024/01/29 06:49:24;;;;;;;;;;;11.60;99.90;;;;;;5073971;28;20011;-78
2024/01/29 06:51:49;;;;;;;;;;;11.70;99.90;;;;;;5075298;28;19909;-79
2024/01/29 06:54:15;;;;;;;;;;;11.60;99.90;;;;;;5075399;28;19908;-77
2024/01/29 06:56:41;;;;;;;;;;;11.70;99.90;;;;;;5072892;28;19924;-77
2024/01/29 06:59:06;;;;;;;;;;;11.70;99.90;;;;;;5071048;28;19920;-78
2024/01/29 07:01:34;;;;;;;;;;;11.70;99.90;;;;;;5069226;28;19916;-80
2024/01/29 07:03:59;;;;;;;;;;;11.60;99.90;;;;;;5071642;28;20303;-75
2024/01/29 07:06:25;;;;;;;;;;;11.70;99.90;;;;;;5071333;28;19909;-80
2024/01/29 07:08:50;;;;;;;;;;;11.60;99.90;;;;;;5072189;28;19959;-77
2024/01/29 07:11:16;;;;;;;;;;;11.60;99.90;;;;;;5071879;28;19940;-77
2024/01/29 07:13:41;;;;;;;;;;;11.70;99.90;;;;;;5072527;28;20099;-80
2024/01/29 07:16:07;;;;;;;;;;;11.60;99.90;;;;;;5068327;28;19913;-81
2024/01/29 07:18:33;;;;;;;;;;;11.60;99.90;;;;;;5067345;28;19912;-83
2024/01/29 07:20:58;;;;;;;;;;;11.60;99.90;;;;;;5066692;28;19920;-81
2024/01/29 07:23:24;;;;;;;;;;;11.60;99.90;;;;;;5072774;28;19947;-79
2024/01/29 07:25:49;;;;;;;;;;;11.60;99.90;;;;;;5073693;28;19990;-87
2024/01/29 07:28:15;;;;;;;;;;;11.60;99.90;;;;;;5073863;28;20019;-84
2024/01/29 07:30:40;;;;;;;;;;;11.60;99.90;;;;;;5075191;28;20013;-82
2024/01/29 07:33:06;;;;;;;;;;;11.60;99.90;;;;;;5072878;28;19993;-83
2024/01/29 07:35:32;;;;;;;;;;;11.50;99.90;;;;;;5105245;28;19955;-81
2024/01/29 07:37:57;;;;;;;;;;;11.50;99.90;;;;;;5070335;28;19917;-84
2024/01/29 07:40:23;;;;;;;;;;;11.60;99.90;;;;;;5094877;28;19917;-80
2024/01/29 07:42:49;;;;;;;;;;;11.60;99.90;;;;;;5061409;28;19916;-81
2024/01/29 07:45:15;;;;;;;;;;;11.60;99.90;;;;;;5061485;28;19912;-81
2024/01/29 07:47:41;;;;;;;;;;;11.60;99.90;;;;;;5067234;28;19931;-85
2024/01/29 07:50:06;;;;;;;;;;;11.70;99.90;;;;;;5060979;28;19908;-80
2024/01/29 07:52:32;;;;;;;;;;;11.60;99.90;;;;;;5070098;28;19927;-80
2024/01/29 07:54:57;;;;;;;;;;;11.60;99.90;;;;;;5069132;28;20289;-80
2024/01/29 07:57:24;;;;;;;;;;;11.60;99.90;;;;;;5060814;28;19921;-79
2024/01/29 07:59:49;;;;;;;;;;;11.60;99.90;;;;;;5059391;28;20749;-84
2024/01/29 08:02:15;;;;;;;;;;;11.70;99.90;;;;;;5059988;28;20035;-85
2024/01/29 08:04:40;;;;;;;;;;;11.70;99.90;;;;;;5071267;28;19912;-83
2024/01/29 08:07:06;;;;;;;;;;;11.70;99.90;;;;;;5070252;28;19919;-82
2024/01/29 08:09:31;;;;;;;;;;;11.70;99.90;;;;;;5061785;28;19916;-80
2024/01/29 08:11:57;;;;;;;;;;;11.70;99.90;;;;;;5071357;28;19913;-84
2024/01/29 08:14:22;;;;;;;;;;;11.70;99.90;;;;;;5064702;28;20653;-79
2024/01/29 08:16:48;;;;;;;;;;;11.70;99.90;;;;;;5076885;28;19928;-83
2024/01/29 08:19:14;;;;;;;;;;;11.70;99.90;;;;;;5071825;28;19920;-82
2024/01/29 08:21:39;;;;;;;;;;;11.80;99.90;;;;;;5063256;28;19935;-82
2024/01/29 08:24:05;;;;;;;;;;;11.80;99.90;;;;;;5071045;28;20011;-86
2024/01/29 08:26:30;;;;;;;;;;;11.80;99.90;;;;;;5063695;28;19912;-82
2024/01/29 08:28:57;;;;;;;;;;;11.90;99.90;;;;;;5064571;28;19944;-82
2024/01/29 08:31:23;;;;;;;;;;;12.00;99.90;;;;;;5070631;28;20432;-82
2024/01/29 08:33:49;;;;;;;;;;;12.00;99.90;;;;;;5065260;28;19916;-85
2024/01/29 08:36:15;;;;;;;;;;;12.00;99.90;;;;;;5070423;28;20455;-86
2024/01/29 08:38:41;;;;;;;;;;;12.00;99.90;;;;;;5066463;28;19917;-84
2024/01/29 08:41:07;;;;;;;;;;;12.10;99.90;;;;;;5065175;28;19928;-81
2024/01/29 08:43:33;;;;;;;;;;;12.10;99.90;;;;;;5065258;28;20017;-79
2024/01/29 08:45:58;;;;;;;;;;;12.30;99.90;;;;;;5067976;28;19923;-79
2024/01/29 08:48:24;;;;;;;;;;;12.30;99.90;;;;;;5071753;28;20020;-83
2024/01/29 08:50:49;;;;;;;;;;;12.30;99.90;;;;;;5066302;28;20406;-83
2024/01/29 08:53:15;;;;;;;;;;;12.40;99.90;;;;;;5063263;28;19917;-84
2024/01/29 08:55:41;;;;;;;;;;;12.40;99.90;;;;;;5072839;28;19913;-82
2024/01/29 08:58:06;;;;;;;;;;;12.40;99.90;;;;;;5067513;28;20001;-86
2024/01/29 09:00:32;;;;;;;;;;;12.50;99.90;;;;;;5064557;28;19916;-81
2024/01/29 09:02:58;;;;;;;;;;;12.50;99.90;;;;;;5067462;28;20462;-83
2024/01/29 09:05:23;;;;;;;;;;;12.60;99.90;;;;;;5063057;28;19920;-80
2024/01/29 09:07:49;;;;;;;;;;;12.70;99.90;;;;;;5067666;28;19970;-81
2024/01/29 09:10:14;;;;;;;;;;;12.70;99.90;;;;;;5059560;28;20012;-80
2024/01/29 09:12:41;;;;;;;;;;;12.80;99.90;;;;;;5067478;28;20271;-80
2024/01/29 09:15:07;;;;;;;;;;;12.80;99.90;;;;;;5062610;28;19930;-81
2024/01/29 09:17:33;;;;;;;;;;;12.90;99.90;;;;;;5058922;28;19973;-80
2024/01/29 09:19:58;;;;;;;;;;;12.90;99.90;;;;;;5073292;28;19917;-82
2024/01/29 09:22:24;;;;;;;;;;;12.90;99.90;;;;;;5072432;28;20015;-88
2024/01/29 09:24:49;;;;;;;;;;;12.90;99.90;;;;;;5084703;28;20308;-81
2024/01/29 09:27:15;;;;;;;;;;;12.90;99.90;;;;;;5076661;28;20368;-81
2024/01/29 09:29:41;;;;;;;;;;;13.00;99.90;;;;;;5075564;28;20385;-81
2024/01/29 09:32:07;;;;;;;;;;;13.00;99.90;;;;;;5068012;28;20674;-82
2024/01/29 09:34:33;;;;;;;;;;;13.10;99.90;;;;;;5075183;28;19944;-83
2024/01/29 09:36:58;;;;;;;;;;;13.10;99.90;;;;;;5076622;28;19919;-83
2024/01/29 09:39:24;;;;;;;;;;;13.20;99.90;;;;;;5076091;28;19919;-79
2024/01/29 09:41:51;;;;;;;;;;;13.20;99.90;;;;;;5074568;28;19909;-78
2024/01/29 09:44:17;;;;;;;;;;;13.20;99.90;;;;;;5076240;28;20364;-77
2024/01/29 09:46:44;;;;;;;;;;;13.30;99.90;;;;;;5076159;28;21469;-78
2024/01/29 09:49:10;;;;;;;;;;;13.30;99.90;;;;;;5074985;28;20408;-81
2024/01/29 09:51:35;;;;;;;;;;;13.20;99.90;;;;;;5076213;28;19908;-82
2024/01/29 09:54:01;;;;;;;;;;;13.30;99.90;;;;;;5076473;28;20011;-83
2024/01/29 09:56:27;;;;;;;;;;;13.20;99.90;;;;;;5074634;28;19916;-80
2024/01/29 09:58:54;;;;;;;;;;;13.20;99.90;;;;;;5075794;28;19928;-80
2024/01/29 10:01:22;;;;;;;;;;;13.20;99.90;;;;;;5074332;28;21604;-82
2024/01/29 10:03:48;;;;;;;;;;;13.20;99.90;;;;;;5076620;28;19916;-80
2024/01/29 10:06:14;;;;;;;;;;;13.30;99.90;;;;;;5074716;28;19923;-84
2024/01/29 10:08:40;;;;;;;;;;;13.30;99.90;;;;;;5075199;28;19972;-81
2024/01/29 10:11:06;;;;;;;;;;;13.40;99.90;;;;;;5076265;28;19909;-85
2024/01/29 10:13:31;;;;;;;;;;;13.40;99.90;;;;;;5074639;28;19909;-81
2024/01/29 10:15:57;;;;;;;;;;;13.50;99.90;;;;;;5075827;28;19916;-81
2024/01/29 10:18:23;;;;;;;;;;;13.50;99.90;;;;;;5075844;28;19908;-81
2024/01/29 10:21:05;;;;;;;;;;;13.60;99.90;;;;;;5073800;28;19920;-81
2024/01/29 10:23:30;;;;;;;;;;;13.70;99.90;;;;;;5074569;28;19908;-82
2024/01/29 10:25:57;;;;;;;;;;;13.70;99.90;;;;;;5075644;28;20043;-82
2024/01/29 10:28:23;;;;;;;;;;;13.80;99.90;;;;;;5075752;28;19909;-83
2024/01/29 10:30:49;;;;;;;;;;;13.80;99.90;;;;;;5074433;28;20107;-80
2024/01/29 10:33:14;;;;;;;;;;;13.80;99.90;;;;;;5075453;28;19948;-82
2024/01/29 10:35:40;;;;;;;;;;;13.90;99.90;;;;;;5075720;28;20276;-84
2024/01/29 10:38:06;;;;;;;;;;;13.90;99.90;;;;;;5075782;28;19909;-79
2024/01/29 10:40:32;;;;;;;;;;;13.90;99.90;;;;;;5074278;28;19976;-83
2024/01/29 10:42:58;;;;;;;;;;;13.90;99.90;;;;;;5075656;28;19916;-81
2024/01/29 10:45:24;;;;;;;;;;;14.00;99.90;;;;;;5075444;28;19915;-78
2024/01/29 10:47:52;;;;;;;;;;;14.00;99.90;;;;;;5075376;28;20010;-80
2024/01/29 10:50:19;;;;;;;;;;;14.00;99.90;;;;;;5075124;28;20349;-84
2024/01/29 10:52:46;;;;;;;;;;;14.10;99.90;;;;;;5075576;28;19912;-81
2024/01/29 10:55:13;;;;;;;;;;;14.00;99.90;;;;;;5079396;28;19908;-82
2024/01/29 10:57:40;;;;;;;;;;;14.00;99.90;;;;;;5079031;28;19931;-79
2024/01/29 11:00:08;;;;;;;;;;;14.00;99.90;;;;;;5111464;28;19920;-79
2024/01/29 11:02:34;;;;;;;;;;;14.00;99.90;;;;;;5079223;28;20365;-83
2024/01/29 11:04:59;;;;;;;;;;;14.00;99.90;;;;;;5067799;28;20003;-78
2024/01/29 11:07:26;;;;;;;;;;;13.90;99.90;;;;;;5065745;28;19924;-79
2024/01/29 11:09:57;;;;;;;;;;;13.90;99.90;;;;;;5054447;28;19913;-79
2024/01/29 11:12:23;;;;;;;;;;;13.80;99.90;;;;;;5057883;28;20054;-82
2024/01/29 11:14:56;;;;;;;;;;;13.80;99.90;;;;;;5060972;28;19927;-80
2024/01/29 11:17:21;;;;;;;;;;;13.80;99.90;;;;;;5088657;28;19941;-80
2024/01/29 11:19:50;;;;;;;;;;;13.90;99.90;;;;;;5056369;28;19917;-87
2024/01/29 11:22:16;;;;;;;;;;;13.90;99.90;;;;;;5057780;28;20007;-80
2024/01/29 11:24:42;;;;;;;;;;;14.10;99.90;;;;;;5056581;28;20369;-79
2024/01/29 11:27:12;;;;;;;;;;;14.10;99.90;;;;;;5061214;28;20007;-81
2024/01/29 11:29:38;;;;;;;;;;;14.10;99.90;;;;;;5066419;28;19924;-78
2024/01/29 11:32:07;;;;;;;;;;;14.10;99.90;;;;;;5072779;28;19912;-79
2024/01/29 11:34:33;;;;;;;;;;;14.20;99.90;;;;;;5071067;28;19916;-82
2024/01/29 11:36:58;;;;;;;;;;;14.20;99.90;;;;;;5067324;28;19916;-80
2024/01/29 11:39:27;;;;;;;;;;;14.20;99.90;;;;;;5065023;28;19916;-81
2024/01/29 11:41:53;;;;;;;;;;;14.30;99.90;;;;;;5069853;28;19947;-82
2024/01/29 11:44:18;;;;;;;;;;;14.30;99.90;;;;;;5064866;28;20437;-81
2024/01/29 11:46:44;;;;;;;;;;;14.30;99.90;;;;;;5072680;28;19920;-84
2024/01/29 11:49:10;;;;;;;;;;;14.20;99.90;;;;;;5063869;28;19959;-80
2024/01/29 11:51:37;;;;;;;;;;;14.20;99.90;;;;;;5072107;28;20042;-83
2024/01/29 11:54:05;;;;;;;;;;;14.20;99.90;;;;;;5063681;28;19912;-80
2024/01/29 11:56:31;;;;;;;;;;;14.30;99.90;;;;;;5070080;28;19913;-81
2024/01/29 11:59:01;;;;;;;;;;;14.30;99.90;;;;;;5061389;28;20423;-82
2024/01/29 12:01:27;;;;;;;;;;;14.40;99.90;;;;;;5061822;28;20391;-82
2024/01/29 12:03:53;;;;;;;;;;;14.40;99.90;;;;;;5066748;28;20439;-81
2024/01/29 12:06:18;;;;;;;;;;;14.50;99.90;;;;;;5063033;28;20422;-80
2024/01/29 12:08:47;;;;;;;;;;;14.50;99.90;;;;;;5071170;28;19917;-84
2024/01/29 12:11:14;;;;;;;;;;;14.60;99.90;;;;;;5064822;28;20116;-79
2024/01/29 12:13:40;;;;;;;;;;;14.50;99.90;;;;;;5067685;28;20007;-78
2024/01/29 12:16:06;;;;;;;;;;;14.60;99.90;;;;;;5073106;28;19944;-84
2024/01/29 12:18:33;;;;;;;;;;;14.50;99.90;;;;;;5060017;28;19947;-80
2024/01/29 12:20:59;;;;;;;;;;;14.60;99.90;;;;;;5059290;28;20309;-80
2024/01/29 12:23:25;;;;;;;;;;;14.70;99.90;;;;;;5092849;28;19912;-86
2024/01/29 12:25:54;;;;;;;;;;;14.70;99.90;;;;;;5058335;28;20015;-81
2024/01/29 12:28:20;;;;;;;;;;;14.80;99.90;;;;;;5060819;28;19916;-86
2024/01/29 12:30:55;;;;;;;;;;;14.80;99.90;;;;;;5061605;28;19919;-82
2024/01/29 12:33:28;;;;;;;;;;;14.80;99.90;;;;;;5062561;28;20411;-82
2024/01/29 12:35:55;;;;;;;;;;;14.80;99.90;;;;;;5055705;28;20292;-82
2024/01/29 12:38:23;;;;;;;;;;;14.70;99.90;;;;;;5059618;28;19913;-79
2024/01/29 12:40:58;;;;;;;;;;;14.60;99.90;;;;;;5057450;28;19921;-83
2024/01/29 12:43:27;;;;;;;;;;;14.50;99.90;;;;;;5061440;28;20619;-82
2024/01/29 12:46:05;;;;;;;;;;;14.50;99.90;;;;;;5063311;28;20641;-82
2024/01/29 12:48:31;;;;;;;;;;;14.50;99.90;;;;;;5063291;28;19912;-79
2024/01/29 12:50:57;;;;;;;;;;;14.40;99.90;;;;;;5068224;28;19916;-84
2024/01/29 12:53:23;;;;;;;;;;;14.30;99.90;;;;;;5070404;28;19917;-83
2024/01/29 12:55:48;;;;;;;;;;;14.40;99.90;;;;;;5070186;28;19924;-81
2024/01/29 12:58:14;;;;;;;;;;;14.40;99.90;;;;;;5067199;28;21315;-82
2024/01/29 13:00:43;;;;;;;;;;;14.50;99.90;;;;;;5068609;28;19917;-88
2024/01/29 13:03:09;;;;;;;;;;;14.60;99.90;;;;;;5067630;28;19912;-88
2024/01/29 13:05:36;;;;;;;;;;;14.60;99.90;;;;;;5068365;28;21321;-84
2024/01/29 13:08:01;;;;;;;;;;;14.70;99.90;;;;;;5072446;28;20380;-80
2024/01/29 13:10:29;;;;;;;;;;;14.70;99.90;;;;;;5068749;28;19977;-77
2024/01/29 13:12:55;;;;;;;;;;;14.60;99.90;;;;;;5073303;28;20416;-80
2024/01/29 13:15:21;;;;;;;;;;;14.80;99.90;;;;;;5070408;28;20062;-78
2024/01/29 13:17:47;;;;;;;;;;;14.80;99.90;;;;;;5072393;28;19934;-82
2024/01/29 13:20:13;;;;;;;;;;;14.80;99.90;;;;;;5075570;28;19912;-86
2024/01/29 13:22:39;;;;;;;;;;;14.80;99.90;;;;;;5074150;28;19927;-77
2024/01/29 13:25:07;;;;;;;;;;;14.70;99.90;;;;;;5073968;28;19919;-81
2024/01/29 13:27:33;;;;;;;;;;;14.70;99.90;;;;;;5070983;28;19915;-78
2024/01/29 13:29:58;;;;;;;;;;;14.60;99.90;;;;;;5072318;28;19912;-84
2024/01/29 13:32:24;;;;;;;;;;;14.60;99.90;;;;;;5071823;28;19917;-77
2024/01/29 13:34:50;;;;;;;;;;;14.70;99.90;;;;;;5075363;28;20426;-83
2024/01/29 13:37:15;;;;;;;;;;;14.80;99.90;;;;;;5075235;28;19915;-79
2024/01/29 13:39:41;;;;;;;;;;;14.70;99.90;;;;;;5075332;28;19916;-80
2024/01/29 13:42:07;;;;;;;;;;;14.70;99.90;;;;;;5073924;28;19908;-82
2024/01/29 13:44:35;;;;;;;;;;;14.70;99.90;;;;;;5074149;28;19992;-82
2024/01/29 13:47:08;;;;;;;;;;;14.60;99.90;;;;;;5073926;28;19932;-81
2024/01/29 13:49:34;;;;;;;;;;;14.60;99.90;;;;;;5073490;28;20003;-81
2024/01/29 13:52:02;;;;;;;;;;;14.50;99.90;;;;;;5087058;28;20498;-80
2024/01/29 13:54:27;;;;;;;;;;;14.50;99.90;;;;;;5073551;28;20428;-80
2024/01/29 13:56:56;;;;;;;;;;;14.40;99.90;;;;;;5072304;28;19936;-81
2024/01/29 13:59:22;;;;;;;;;;;14.20;99.90;;;;;;5075095;28;19920;-84
2024/01/29 14:01:48;;;;;;;;;;;14.30;99.90;;;;;;5073355;28;20394;-81
2024/01/29 14:04:14;;;;;;;;;;;14.30;99.90;;;;;;5073828;28;19913;-86
2024/01/29 14:07:00;;;;;;;;;;;14.30;99.90;;;;;;5073563;28;19932;-84
2024/01/29 14:09:27;;;;;;;;;;;14.30;99.90;;;;;;5073344;28;20304;-81